createdAt,value
2023-05-09T00:00:39.031Z, 36.49
2023-05-09T00:01:39.173Z, 36.47
2023-05-09T00:02:39.284Z, 36.46
2023-05-09T00:03:39.171Z, 36.46
2023-05-09T00:04:39.173Z, 36.46
2023-05-09T00:05:39.151Z, 36.45
2023-05-09T00:06:39.150Z, 36.41
2023-05-09T00:07:39.160Z, 36.41
2023-05-09T00:08:39.195Z, 36.40
2023-05-09T00:09:39.149Z, 36.39
2023-05-09T00:10:39.285Z, 36.43
2023-05-09T00:11:39.180Z, 36.40
2023-05-09T00:12:39.347Z, 36.37
2023-05-09T00:13:39.304Z, 36.38
2023-05-09T00:14:39.301Z, 36.37
2023-05-09T00:15:39.314Z, 36.31
2023-05-09T00:16:39.300Z, 36.32
2023-05-09T00:17:39.344Z, 36.33
2023-05-09T00:18:39.296Z, 36.32
2023-05-09T00:19:39.332Z, 36.32
2023-05-09T00:20:39.302Z, 36.27
2023-05-09T00:21:39.300Z, 36.25
2023-05-09T00:22:39.304Z, 36.26
2023-05-09T00:23:39.304Z, 36.20
2023-05-09T00:24:39.318Z, 36.22
2023-05-09T00:25:39.323Z, 36.24
2023-05-09T00:26:39.332Z, 36.22
2023-05-09T00:27:39.398Z, 36.17
2023-05-09T00:28:39.404Z, 36.15
2023-05-09T00:29:39.400Z, 36.12
2023-05-09T00:30:39.395Z, 36.15
2023-05-09T00:31:39.412Z, 36.16
2023-05-09T00:32:39.418Z, 36.14
2023-05-09T00:33:39.390Z, 36.11
2023-05-09T00:34:39.394Z, 36.11
2023-05-09T00:35:39.394Z, 36.10
2023-05-09T00:36:39.417Z, 36.09
2023-05-09T00:37:39.574Z, 36.05
2023-05-09T00:38:39.574Z, 36.04
2023-05-09T00:39:39.594Z, 36.04
2023-05-09T00:40:39.575Z, 36.04
2023-05-09T00:41:39.601Z, 36.02
2023-05-09T00:42:39.584Z, 36.00
2023-05-09T00:43:39.744Z, 35.99
2023-05-09T00:44:39.742Z, 35.97
2023-05-09T00:45:39.740Z, 35.96
2023-05-09T00:46:39.751Z, 35.97
2023-05-09T00:47:39.857Z, 35.97
2023-05-09T00:48:39.751Z, 35.97
2023-05-09T00:49:39.762Z, 35.97
2023-05-09T00:50:39.748Z, 35.96
2023-05-09T00:51:39.754Z, 35.94
2023-05-09T00:52:39.748Z, 35.93
2023-05-09T00:53:39.748Z, 35.91
2023-05-09T00:54:39.782Z, 35.91
2023-05-09T00:55:39.745Z, 35.89
2023-05-09T00:56:39.915Z, 35.90
2023-05-09T00:57:39.776Z, 35.86
2023-05-09T00:58:39.908Z, 35.85
2023-05-09T00:59:39.919Z, 35.87
2023-05-09T01:00:39.922Z, 35.87
2023-05-09T01:01:39.949Z, 35.85
2023-05-09T01:02:39.943Z, 35.80
2023-05-09T01:03:40.059Z, 35.80
2023-05-09T01:04:39.945Z, 35.78
2023-05-09T01:05:39.916Z, 35.82
2023-05-09T01:06:39.915Z, 35.80
2023-05-09T01:07:39.923Z, 35.77
2023-05-09T01:08:39.926Z, 35.76
2023-05-09T01:09:39.925Z, 35.75
2023-05-09T01:10:39.925Z, 35.72
2023-05-09T01:11:40.114Z, 35.71
2023-05-09T01:12:40.117Z, 35.69
2023-05-09T01:13:40.128Z, 35.66
2023-05-09T01:14:40.124Z, 35.64
2023-05-09T01:15:40.149Z, 35.60
2023-05-09T01:16:40.125Z, 35.58
2023-05-09T01:17:40.136Z, 35.62
2023-05-09T01:18:40.108Z, 35.59
2023-05-09T01:19:40.111Z, 35.60
2023-05-09T01:20:40.107Z, 35.58
2023-05-09T01:21:40.103Z, 35.54
2023-05-09T01:22:40.112Z, 35.57
2023-05-09T01:23:40.106Z, 35.60
2023-05-09T01:24:40.275Z, 35.62
2023-05-09T01:25:40.105Z, 35.55
2023-05-09T01:26:40.130Z, 35.54
2023-05-09T01:27:40.139Z, 35.51
2023-05-09T01:28:40.143Z, 35.47
2023-05-09T01:29:40.274Z, 35.45
2023-05-09T01:30:40.277Z, 35.48
2023-05-09T01:31:40.318Z, 35.48
2023-05-09T01:32:40.315Z, 35.45
2023-05-09T01:33:40.282Z, 35.44
2023-05-09T01:34:40.278Z, 35.44
2023-05-09T01:35:40.289Z, 35.44
2023-05-09T01:36:40.277Z, 35.45
2023-05-09T01:37:40.278Z, 35.46
2023-05-09T01:38:40.278Z, 35.44
2023-05-09T01:39:40.281Z, 35.44
2023-05-09T01:40:40.306Z, 35.41
2023-05-09T01:41:40.284Z, 35.43
2023-05-09T01:42:40.466Z, 35.42
2023-05-09T01:43:40.597Z, 35.38
2023-05-09T01:44:40.453Z, 35.37
2023-05-09T01:45:40.461Z, 35.36
2023-05-09T01:46:40.652Z, 35.33
2023-05-09T01:47:40.496Z, 35.32
2023-05-09T01:48:40.459Z, 35.32
2023-05-09T01:49:40.470Z, 35.35
2023-05-09T01:50:40.472Z, 35.32
2023-05-09T01:51:42.969Z, 35.29
2023-05-09T01:52:40.469Z, 35.28
2023-05-09T01:53:40.465Z, 35.27
2023-05-09T01:54:40.476Z, 35.27
2023-05-09T01:55:40.469Z, 35.29
2023-05-09T01:56:40.472Z, 35.28
2023-05-09T01:57:40.492Z, 35.26
2023-05-09T01:58:40.497Z, 35.25
2023-05-09T01:59:40.637Z, 35.21
2023-05-09T02:00:40.749Z, 35.19
2023-05-09T02:01:40.645Z, 35.21
2023-05-09T02:02:40.700Z, 35.16
2023-05-09T02:03:40.666Z, 35.12
2023-05-09T02:04:40.647Z, 35.15
2023-05-09T02:05:40.644Z, 35.14
2023-05-09T02:06:40.656Z, 35.10
2023-05-09T02:07:40.656Z, 35.11
2023-05-09T02:08:40.656Z, 35.11
2023-05-09T02:09:40.657Z, 35.12
2023-05-09T02:10:40.656Z, 35.14
2023-05-09T02:11:40.671Z, 35.06
2023-05-09T02:12:40.754Z, 35.06
2023-05-09T02:13:40.841Z, 35.04
2023-05-09T02:14:40.838Z, 35.04
2023-05-09T02:15:40.855Z, 35.03
2023-05-09T02:16:40.915Z, 35.01
2023-05-09T02:17:40.854Z, 35.02
2023-05-09T02:18:40.847Z, 35.01
2023-05-09T02:19:40.842Z, 35.01
2023-05-09T02:20:40.846Z, 35.00
2023-05-09T02:21:40.852Z, 34.98
2023-05-09T02:22:40.843Z, 34.93
2023-05-09T02:23:40.843Z, 34.97
2023-05-09T02:24:40.855Z, 34.95
2023-05-09T02:25:40.843Z, 34.94
2023-05-09T02:26:40.847Z, 34.92
2023-05-09T02:27:41.016Z, 34.86
2023-05-09T02:28:41.044Z, 34.85
2023-05-09T02:29:41.038Z, 34.88
2023-05-09T02:30:41.030Z, 34.86
2023-05-09T02:31:41.088Z, 34.87
2023-05-09T02:32:41.049Z, 34.85
2023-05-09T02:33:41.024Z, 34.86
2023-05-09T02:34:41.015Z, 34.86
2023-05-09T02:35:41.027Z, 34.86
2023-05-09T02:36:41.041Z, 34.82
2023-05-09T02:37:41.015Z, 34.80
2023-05-09T02:38:41.188Z, 34.83
2023-05-09T02:39:41.068Z, 34.78
2023-05-09T02:40:41.191Z, 34.79
2023-05-09T02:41:41.193Z, 34.77
2023-05-09T02:42:41.195Z, 34.75
2023-05-09T02:43:41.191Z, 34.75
2023-05-09T02:44:41.197Z, 34.76
2023-05-09T02:45:41.233Z, 34.71
2023-05-09T02:46:41.196Z, 34.71
2023-05-09T02:47:41.298Z, 34.69
2023-05-09T02:48:41.196Z, 34.68
2023-05-09T02:49:41.205Z, 34.70
2023-05-09T02:50:41.196Z, 34.68
2023-05-09T02:51:41.214Z, 34.67
2023-05-09T02:52:41.317Z, 34.66
2023-05-09T02:53:41.198Z, 34.64
2023-05-09T02:54:41.211Z, 34.66
2023-05-09T02:55:41.210Z, 34.67
2023-05-09T02:56:41.376Z, 34.63
2023-05-09T02:57:41.369Z, 34.66
2023-05-09T02:58:41.370Z, 34.65
2023-05-09T02:59:41.386Z, 34.61
2023-05-09T03:00:41.385Z, 34.58
2023-05-09T03:01:41.435Z, 34.58
2023-05-09T03:02:41.501Z, 34.58
2023-05-09T03:03:41.523Z, 34.52
2023-05-09T03:04:41.397Z, 34.54
2023-05-09T03:05:41.384Z, 34.54
2023-05-09T03:06:41.380Z, 34.52
2023-05-09T03:07:41.385Z, 34.50
2023-05-09T03:08:41.396Z, 34.53
2023-05-09T03:09:41.544Z, 34.49
2023-05-09T03:10:41.426Z, 34.44
2023-05-09T03:11:41.562Z, 34.40
2023-05-09T03:12:41.574Z, 34.43
2023-05-09T03:13:41.558Z, 34.43
2023-05-09T03:14:41.430Z, 34.43
2023-05-09T03:15:41.600Z, 34.45
2023-05-09T03:16:41.570Z, 34.46
2023-05-09T03:17:41.610Z, 34.48
2023-05-09T03:18:41.559Z, 34.48
2023-05-09T03:19:41.583Z, 34.43
2023-05-09T03:20:41.582Z, 34.43
2023-05-09T03:21:41.575Z, 34.38
2023-05-09T03:22:41.569Z, 34.39
2023-05-09T03:23:41.614Z, 34.37
2023-05-09T03:24:41.597Z, 34.37
2023-05-09T03:25:41.599Z, 34.36
2023-05-09T03:26:41.599Z, 34.28
2023-05-09T03:27:41.749Z, 34.30
2023-05-09T03:28:41.601Z, 34.31
2023-05-09T03:29:41.592Z, 34.30
2023-05-09T03:30:41.741Z, 34.32
2023-05-09T03:31:41.803Z, 34.89
2023-05-09T03:32:41.786Z, 35.61
2023-05-09T03:33:41.747Z, 37.23
2023-05-09T03:34:41.751Z, 38.40
2023-05-09T03:35:41.754Z, 39.12
2023-05-09T03:36:41.747Z, 39.73
2023-05-09T03:37:41.795Z, 40.25
2023-05-09T03:38:41.756Z, 40.57
2023-05-09T03:39:41.754Z, 40.91
2023-05-09T03:40:41.770Z, 41.26
2023-05-09T03:41:41.926Z, 41.54
2023-05-09T03:42:41.922Z, 41.78
2023-05-09T03:43:41.925Z, 42.02
2023-05-09T03:44:41.939Z, 42.23
2023-05-09T03:45:41.920Z, 42.44
2023-05-09T03:46:41.984Z, 42.63
2023-05-09T03:47:42.001Z, 42.85
2023-05-09T03:48:41.932Z, 43.05
2023-05-09T03:49:41.939Z, 43.16
2023-05-09T03:50:41.924Z, 43.29
2023-05-09T03:51:42.365Z, 43.40
2023-05-09T03:52:41.928Z, 43.49
2023-05-09T03:53:41.929Z, 43.57
2023-05-09T03:54:41.927Z, 43.63
2023-05-09T03:55:42.112Z, 43.71
2023-05-09T03:56:42.104Z, 43.75
2023-05-09T03:57:42.099Z, 43.83
2023-05-09T03:58:42.121Z, 43.86
2023-05-09T03:59:42.110Z, 43.90
2023-05-09T04:00:42.109Z, 43.94
2023-05-09T04:01:42.121Z, 43.97
2023-05-09T04:02:42.318Z, 43.77
2023-05-09T04:03:42.206Z, 45.01
2023-05-09T04:04:42.119Z, 48.42
2023-05-09T04:05:42.109Z, 52.62
2023-05-09T04:06:42.107Z, 56.83
2023-05-09T04:07:42.148Z, 61.35
2023-05-09T04:08:42.149Z, 67.64
2023-05-09T04:09:42.175Z, 56.96
2023-05-09T04:10:42.161Z, 54.80
2023-05-09T04:11:42.169Z, 55.80
2023-05-09T04:12:42.201Z, 57.87
2023-05-09T04:13:42.171Z, 62.11
2023-05-09T04:14:42.170Z, 68.35
2023-05-09T04:15:42.187Z, 60.47
2023-05-09T04:16:42.208Z, 57.81
2023-05-09T04:17:42.213Z, 56.99
2023-05-09T04:18:42.204Z, 55.31
2023-05-09T04:19:42.180Z, 55.41
2023-05-09T04:20:42.189Z, 55.82
2023-05-09T04:21:42.186Z, 56.54
2023-05-09T04:22:42.183Z, 57.45
2023-05-09T04:23:42.194Z, 57.10
2023-05-09T04:24:42.176Z, 56.83
2023-05-09T04:25:42.184Z, 56.61
2023-05-09T04:26:42.204Z, 56.29
2023-05-09T04:27:42.193Z, 56.04
2023-05-09T04:28:42.295Z, 55.84
2023-05-09T04:29:42.280Z, 55.63
2023-05-09T04:30:42.355Z, 55.37
2023-05-09T04:31:42.457Z, 55.23
2023-05-09T04:32:42.321Z, 55.04
2023-05-09T04:33:42.359Z, 54.87
2023-05-09T04:34:42.326Z, 54.65
2023-05-09T04:35:42.388Z, 54.54
2023-05-09T04:36:42.487Z, 54.41
2023-05-09T04:37:42.418Z, 54.24
2023-05-09T04:38:42.426Z, 54.06
2023-05-09T04:39:42.415Z, 53.91
2023-05-09T04:40:42.395Z, 53.79
2023-05-09T04:41:42.407Z, 53.61
2023-05-09T04:42:42.410Z, 53.51
2023-05-09T04:43:42.429Z, 53.35
2023-05-09T04:44:42.501Z, 53.19
2023-05-09T04:45:42.461Z, 53.04
2023-05-09T04:46:42.577Z, 52.87
2023-05-09T04:47:42.511Z, 52.73
2023-05-09T04:48:42.547Z, 52.67
2023-05-09T04:49:42.527Z, 52.58
2023-05-09T04:50:42.552Z, 52.65
2023-05-09T04:51:42.540Z, 52.91
2023-05-09T04:52:42.526Z, 53.22
2023-05-09T04:53:42.549Z, 53.34
2023-05-09T04:54:42.531Z, 53.38
2023-05-09T04:55:42.615Z, 53.34
2023-05-09T04:56:42.602Z, 53.32
2023-05-09T04:57:42.661Z, 53.21
2023-05-09T04:58:42.621Z, 53.11
2023-05-09T04:59:42.674Z, 53.05
2023-05-09T05:00:42.655Z, 52.98
2023-05-09T05:01:42.712Z, 52.87
2023-05-09T05:02:42.720Z, 52.78
2023-05-09T05:03:42.702Z, 52.61
2023-05-09T05:04:42.741Z, 52.29
2023-05-09T05:05:42.795Z, 51.99
2023-05-09T05:06:42.754Z, 51.78
2023-05-09T05:07:42.732Z, 51.62
2023-05-09T05:08:42.718Z, 51.49
2023-05-09T05:09:42.740Z, 51.31
2023-05-09T05:10:42.729Z, 51.19
2023-05-09T05:11:53.238Z, 51.12
2023-05-09T05:12:42.803Z, 50.98
2023-05-09T05:13:42.785Z, 50.85
2023-05-09T05:14:42.781Z, 50.77
2023-05-09T05:15:42.773Z, 50.66
2023-05-09T05:16:42.788Z, 50.57
2023-05-09T05:17:42.828Z, 50.45
2023-05-09T05:18:42.873Z, 50.38
2023-05-09T05:19:42.856Z, 50.31
2023-05-09T05:20:42.944Z, 50.18
2023-05-09T05:21:42.921Z, 50.08
2023-05-09T05:22:42.950Z, 50.09
2023-05-09T05:23:42.935Z, 50.00
2023-05-09T05:24:42.926Z, 49.93
2023-05-09T05:25:42.945Z, 49.81
2023-05-09T05:26:42.932Z, 49.80
2023-05-09T05:27:42.955Z, 49.76
2023-05-09T05:28:42.957Z, 49.71
2023-05-09T05:29:42.981Z, 49.63
2023-05-09T05:30:42.980Z, 49.54
2023-05-09T05:31:43.021Z, 49.50
2023-05-09T05:32:43.080Z, 49.45
2023-05-09T05:33:43.036Z, 49.41
2023-05-09T05:34:43.092Z, 49.37
2023-05-09T05:35:43.070Z, 49.24
2023-05-09T05:36:43.117Z, 49.23
2023-05-09T05:37:43.104Z, 49.20
2023-05-09T05:38:43.095Z, 49.22
2023-05-09T05:39:43.101Z, 49.28
2023-05-09T05:40:43.093Z, 49.20
2023-05-09T05:41:43.107Z, 49.22
2023-05-09T05:42:43.131Z, 49.20
2023-05-09T05:43:43.112Z, 49.21
2023-05-09T05:44:43.121Z, 49.13
2023-05-09T05:45:43.251Z, 48.99
2023-05-09T05:46:43.161Z, 49.00
2023-05-09T05:47:43.217Z, 48.98
2023-05-09T05:48:43.172Z, 48.96
2023-05-09T05:49:43.186Z, 48.86
2023-05-09T05:50:43.246Z, 48.88
2023-05-09T05:51:43.239Z, 48.84
2023-05-09T05:52:43.239Z, 48.84
2023-05-09T05:53:43.245Z, 48.85
2023-05-09T05:54:43.242Z, 48.80
2023-05-09T05:55:43.345Z, 48.77
2023-05-09T05:56:43.404Z, 48.74
2023-05-09T05:57:43.363Z, 48.72
2023-05-09T05:58:43.327Z, 48.72
2023-05-09T05:59:43.386Z, 48.70
2023-05-09T06:00:43.387Z, 48.61
2023-05-09T06:01:43.444Z, 48.62
2023-05-09T06:02:43.553Z, 48.65
2023-05-09T06:03:43.442Z, 48.66
2023-05-09T06:04:43.388Z, 48.56
2023-05-09T06:05:43.400Z, 48.53
2023-05-09T06:06:43.419Z, 48.47
2023-05-09T06:07:43.403Z, 48.38
2023-05-09T06:08:43.425Z, 48.40
2023-05-09T06:09:43.425Z, 48.45
2023-05-09T06:10:43.448Z, 48.45
2023-05-09T06:11:43.430Z, 48.43
2023-05-09T06:12:43.533Z, 48.40
2023-05-09T06:13:43.488Z, 48.35
2023-05-09T06:14:43.494Z, 48.28
2023-05-09T06:15:43.533Z, 48.27
2023-05-09T06:16:43.562Z, 48.25
2023-05-09T06:17:43.572Z, 48.25
2023-05-09T06:18:43.540Z, 48.21
2023-05-09T06:19:43.616Z, 48.17
2023-05-09T06:20:43.634Z, 48.25
2023-05-09T06:21:43.635Z, 48.15
2023-05-09T06:22:43.625Z, 48.14
2023-05-09T06:23:57.585Z, 48.12
2023-05-09T06:24:43.701Z, 48.12
2023-05-09T06:25:43.662Z, 48.02
2023-05-09T06:26:43.715Z, 47.97
2023-05-09T06:27:43.688Z, 47.93
2023-05-09T06:28:43.691Z, 47.92
2023-05-09T06:29:43.686Z, 47.89
2023-05-09T06:30:43.692Z, 47.88
2023-05-09T06:31:43.791Z, 47.90
2023-05-09T06:32:43.749Z, 47.90
2023-05-09T06:33:43.832Z, 47.84
2023-05-09T06:34:43.794Z, 47.81
2023-05-09T06:35:43.804Z, 47.85
2023-05-09T06:36:43.795Z, 47.82
2023-05-09T06:37:43.790Z, 47.80
2023-05-09T06:38:43.856Z, 47.78
2023-05-09T06:39:43.804Z, 47.79
2023-05-09T06:40:43.898Z, 47.69
2023-05-09T06:41:43.879Z, 47.62
2023-05-09T06:42:43.911Z, 47.57
2023-05-09T06:43:43.886Z, 47.57
2023-05-09T06:44:43.981Z, 47.59
2023-05-09T06:45:43.938Z, 47.48
2023-05-09T06:46:43.996Z, 47.47
2023-05-09T06:47:44.045Z, 47.56
2023-05-09T06:48:43.972Z, 47.53
2023-05-09T06:49:44.018Z, 47.55
2023-05-09T06:50:44.012Z, 47.62
2023-05-09T06:51:44.013Z, 47.52
2023-05-09T06:52:44.010Z, 47.46
2023-05-09T06:53:44.008Z, 47.47
2023-05-09T06:54:44.069Z, 47.47
2023-05-09T06:55:44.048Z, 47.51
2023-05-09T06:56:44.078Z, 47.57
2023-05-09T06:57:44.090Z, 47.40
2023-05-09T06:58:44.104Z, 47.32
2023-05-09T06:59:44.086Z, 47.27
2023-05-09T07:00:44.134Z, 47.29
2023-05-09T07:01:44.165Z, 47.30
2023-05-09T07:02:44.239Z, 47.30
2023-05-09T07:03:44.181Z, 47.20
2023-05-09T07:04:44.271Z, 47.20
2023-05-09T07:05:44.192Z, 47.16
2023-05-09T07:06:44.199Z, 47.05
2023-05-09T07:07:44.204Z, 47.03
2023-05-09T07:08:44.218Z, 47.16
2023-05-09T07:09:44.289Z, 47.11
2023-05-09T07:10:44.275Z, 47.06
2023-05-09T07:11:44.307Z, 47.05
2023-05-09T07:12:44.321Z, 47.09
2023-05-09T07:13:44.341Z, 47.06
2023-05-09T07:14:44.324Z, 47.02
2023-05-09T07:15:44.503Z, 47.06
2023-05-09T07:16:44.351Z, 47.01
2023-05-09T07:17:44.355Z, 47.03
2023-05-09T07:18:44.404Z, 46.99
2023-05-09T07:19:44.374Z, 46.99
2023-05-09T07:20:44.400Z, 47.04
2023-05-09T07:21:44.374Z, 47.08
2023-05-09T07:22:44.462Z, 46.99
2023-05-09T07:23:44.431Z, 46.95
2023-05-09T07:24:44.426Z, 46.93
2023-05-09T07:25:44.415Z, 46.84
2023-05-09T07:26:44.428Z, 46.82
2023-05-09T07:27:44.433Z, 46.84
2023-05-09T07:28:44.429Z, 46.89
2023-05-09T07:29:44.508Z, 46.78
2023-05-09T07:30:44.486Z, 46.75
2023-05-09T07:31:44.563Z, 46.79
2023-05-09T07:32:44.546Z, 46.79
2023-05-09T07:33:44.554Z, 46.74
2023-05-09T07:34:44.546Z, 46.71
2023-05-09T07:35:44.539Z, 46.66
2023-05-09T07:36:44.537Z, 46.65
2023-05-09T07:37:44.551Z, 46.66
2023-05-09T07:38:44.556Z, 46.68
2023-05-09T07:39:44.577Z, 46.59
2023-05-09T07:40:44.638Z, 46.63
2023-05-09T07:41:44.624Z, 46.61
2023-05-09T07:42:44.683Z, 46.57
2023-05-09T07:43:44.641Z, 46.62
2023-05-09T07:44:44.701Z, 46.63
2023-05-09T07:45:44.719Z, 46.58
2023-05-09T07:46:44.711Z, 46.53
2023-05-09T07:47:44.774Z, 46.51
2023-05-09T07:48:44.774Z, 46.42
2023-05-09T07:49:44.734Z, 46.37
2023-05-09T07:50:44.754Z, 46.33
2023-05-09T07:51:44.717Z, 46.36
2023-05-09T07:52:44.733Z, 46.36
2023-05-09T07:53:44.744Z, 46.35
2023-05-09T07:54:44.736Z, 46.33
2023-05-09T07:55:44.734Z, 46.31
2023-05-09T07:56:44.796Z, 46.38
2023-05-09T07:57:44.790Z, 46.32
2023-05-09T07:58:44.843Z, 46.21
2023-05-09T07:59:44.822Z, 46.30
2023-05-09T08:00:44.824Z, 46.27
2023-05-09T08:01:44.933Z, 46.29
2023-05-09T08:02:44.987Z, 46.25
2023-05-09T08:03:45.025Z, 46.27
2023-05-09T08:04:44.890Z, 46.25
2023-05-09T08:05:44.925Z, 46.18
2023-05-09T08:06:44.919Z, 46.14
2023-05-09T08:07:44.914Z, 46.09
2023-05-09T08:08:44.913Z, 46.07
2023-05-09T08:09:44.925Z, 46.16
2023-05-09T08:10:45.019Z, 46.09
2023-05-09T08:11:45.010Z, 46.06
2023-05-09T08:12:45.046Z, 46.09
2023-05-09T08:13:45.017Z, 46.06
2023-05-09T08:14:45.000Z, 46.03
2023-05-09T08:15:45.084Z, 46.02
2023-05-09T08:16:45.063Z, 45.99
2023-05-09T08:17:45.058Z, 45.96
2023-05-09T08:18:45.111Z, 45.91
2023-05-09T08:19:45.065Z, 45.90
2023-05-09T08:20:45.125Z, 45.86
2023-05-09T08:21:45.096Z, 45.81
2023-05-09T08:22:45.143Z, 45.81
2023-05-09T08:23:45.108Z, 45.84
2023-05-09T08:24:45.122Z, 45.85
2023-05-09T08:25:45.153Z, 45.83
2023-05-09T08:26:45.132Z, 45.82
2023-05-09T08:27:45.160Z, 45.75
2023-05-09T08:28:45.176Z, 45.74
2023-05-09T08:29:45.245Z, 45.73
2023-05-09T08:30:45.253Z, 45.71
2023-05-09T08:31:45.329Z, 45.72
2023-05-09T08:32:45.308Z, 45.72
2023-05-09T08:33:45.273Z, 45.68
2023-05-09T08:34:45.269Z, 45.70
2023-05-09T08:35:45.301Z, 45.64
2023-05-09T08:36:45.278Z, 45.59
2023-05-09T08:37:45.297Z, 45.56
2023-05-09T08:38:45.311Z, 45.60
2023-05-09T08:39:45.312Z, 45.60
2023-05-09T08:40:45.364Z, 45.55
2023-05-09T08:41:45.348Z, 45.51
2023-05-09T08:42:45.417Z, 45.50
2023-05-09T08:43:45.382Z, 45.48
2023-05-09T08:44:45.420Z, 45.47
2023-05-09T08:45:45.402Z, 45.48
2023-05-09T08:46:45.501Z, 45.47
2023-05-09T08:47:45.445Z, 45.42
2023-05-09T08:48:45.425Z, 45.38
2023-05-09T08:49:45.423Z, 45.36
2023-05-09T08:50:45.427Z, 45.36
2023-05-09T08:51:45.440Z, 45.30
2023-05-09T08:52:45.453Z, 45.27
2023-05-09T08:53:45.476Z, 45.26
2023-05-09T08:54:45.469Z, 45.29
2023-05-09T08:55:45.565Z, 45.24
2023-05-09T08:56:45.554Z, 45.24
2023-05-09T08:57:45.543Z, 45.18
2023-05-09T08:58:45.541Z, 45.22
2023-05-09T08:59:45.541Z, 45.22
2023-05-09T09:00:45.628Z, 45.18
2023-05-09T09:01:45.664Z, 45.16
2023-05-09T09:02:45.643Z, 45.16
2023-05-09T09:03:45.605Z, 45.20
2023-05-09T09:04:45.658Z, 45.18
2023-05-09T09:05:45.671Z, 45.19
2023-05-09T09:06:45.655Z, 45.18
2023-05-09T09:07:45.700Z, 45.12
2023-05-09T09:08:45.674Z, 45.10
2023-05-09T09:09:45.674Z, 45.03
2023-05-09T09:10:45.674Z, 45.01
2023-05-09T09:11:45.701Z, 45.02
2023-05-09T09:12:46.737Z, 45.01
2023-05-09T09:13:45.768Z, 44.98
2023-05-09T09:14:45.760Z, 44.96
2023-05-09T09:15:45.765Z, 44.93
2023-05-09T09:16:45.812Z, 44.88
2023-05-09T09:17:45.849Z, 44.95
2023-05-09T09:18:45.816Z, 44.94
2023-05-09T09:19:45.778Z, 44.91
2023-05-09T09:20:45.828Z, 44.89
2023-05-09T09:21:45.802Z, 44.88
2023-05-09T09:22:45.815Z, 44.89
2023-05-09T09:23:45.821Z, 44.83
2023-05-09T09:24:45.820Z, 44.84
2023-05-09T09:25:45.851Z, 44.87
2023-05-09T09:26:45.861Z, 44.89
2023-05-09T09:27:45.878Z, 44.81
2023-05-09T09:28:45.889Z, 44.77
2023-05-09T09:29:45.896Z, 44.74
2023-05-09T09:30:45.897Z, 44.80
2023-05-09T09:31:46.103Z, 44.75
2023-05-09T09:32:46.077Z, 44.71
2023-05-09T09:33:45.991Z, 44.67
2023-05-09T09:34:45.990Z, 44.66
2023-05-09T09:35:45.998Z, 44.62
2023-05-09T09:36:46.030Z, 44.59
2023-05-09T09:37:46.003Z, 44.58
2023-05-09T09:38:46.011Z, 44.65
2023-05-09T09:39:46.017Z, 44.61
2023-05-09T09:40:46.020Z, 44.61
2023-05-09T09:41:46.021Z, 44.61
2023-05-09T09:42:46.054Z, 44.49
2023-05-09T09:43:46.158Z, 44.51
2023-05-09T09:44:46.113Z, 44.50
2023-05-09T09:45:46.269Z, 44.48
2023-05-09T09:46:46.118Z, 44.49
2023-05-09T09:47:46.253Z, 44.43
2023-05-09T09:48:46.154Z, 44.38
2023-05-09T09:49:46.318Z, 44.35
2023-05-09T09:50:46.156Z, 44.37
2023-05-09T09:51:46.158Z, 44.35
2023-05-09T09:52:46.232Z, 44.35
2023-05-09T09:53:46.228Z, 44.32
2023-05-09T09:54:46.237Z, 44.36
2023-05-09T09:55:46.213Z, 44.34
2023-05-09T09:56:46.257Z, 44.34
2023-05-09T09:57:46.256Z, 44.31
2023-05-09T09:58:46.261Z, 44.29
2023-05-09T09:59:46.310Z, 44.26
2023-05-09T10:00:46.325Z, 44.25
2023-05-09T10:01:46.362Z, 45.01
2023-05-09T10:02:46.316Z, 45.90
2023-05-09T10:03:46.332Z, 46.37
2023-05-09T10:04:46.341Z, 46.60
2023-05-09T10:05:46.349Z, 46.72
2023-05-09T10:06:46.326Z, 46.77
2023-05-09T10:07:46.334Z, 46.72
2023-05-09T10:08:46.335Z, 46.66
2023-05-09T10:09:46.377Z, 46.59
2023-05-09T10:10:46.352Z, 46.53
2023-05-09T10:11:46.418Z, 46.53
2023-05-09T10:12:46.415Z, 46.55
2023-05-09T10:13:46.476Z, 46.56
2023-05-09T10:14:46.450Z, 46.60
2023-05-09T10:15:53.476Z, 46.59
2023-05-09T10:16:46.483Z, 46.57
2023-05-09T10:17:46.610Z, 46.57
2023-05-09T10:18:46.673Z, 46.52
2023-05-09T10:19:46.492Z, 46.47
2023-05-09T10:20:46.575Z, 46.51
2023-05-09T10:21:46.542Z, 46.53
2023-05-09T10:22:46.570Z, 46.47
2023-05-09T10:23:46.545Z, 46.46
2023-05-09T10:24:46.604Z, 46.46
2023-05-09T10:25:46.583Z, 46.42
2023-05-09T10:26:46.582Z, 46.37
2023-05-09T10:27:46.593Z, 46.38
2023-05-09T10:28:46.598Z, 46.38
2023-05-09T10:29:46.695Z, 46.34
2023-05-09T10:30:46.643Z, 46.30
2023-05-09T10:31:46.776Z, 46.13
2023-05-09T10:32:46.699Z, 45.90
2023-05-09T10:33:46.696Z, 45.62
2023-05-09T10:34:46.690Z, 45.47
2023-05-09T10:35:46.685Z, 45.32
2023-05-09T10:36:46.695Z, 45.17
2023-05-09T10:37:46.704Z, 45.07
2023-05-09T10:38:46.771Z, 44.99
2023-05-09T10:39:46.769Z, 44.96
2023-05-09T10:40:46.822Z, 44.86
2023-05-09T10:41:46.795Z, 44.79
2023-05-09T10:42:46.846Z, 44.67
2023-05-09T10:43:46.819Z, 44.60
2023-05-09T10:44:46.826Z, 44.58
2023-05-09T10:45:46.821Z, 44.49
2023-05-09T10:46:46.872Z, 44.40
2023-05-09T10:47:46.883Z, 44.33
2023-05-09T10:48:46.840Z, 44.28
2023-05-09T10:49:46.908Z, 44.26
2023-05-09T10:50:46.911Z, 44.22
2023-05-09T10:51:46.897Z, 44.22
2023-05-09T10:52:46.960Z, 44.19
2023-05-09T10:53:46.916Z, 44.15
2023-05-09T10:54:46.947Z, 44.08
2023-05-09T10:55:46.949Z, 44.02
2023-05-09T10:56:46.994Z, 44.05
2023-05-09T10:57:46.987Z, 44.01
2023-05-09T10:58:46.969Z, 43.95
2023-05-09T10:59:47.017Z, 43.93
2023-05-09T11:00:46.988Z, 43.91
2023-05-09T11:01:47.122Z, 43.91
2023-05-09T11:02:47.144Z, 43.91
2023-05-09T11:03:47.324Z, 43.93
2023-05-09T11:04:47.093Z, 43.90
2023-05-09T11:05:47.123Z, 43.82
2023-05-09T11:06:47.141Z, 43.77
2023-05-09T11:07:47.134Z, 43.73
2023-05-09T11:08:47.174Z, 43.78
2023-05-09T11:09:47.148Z, 43.72
2023-05-09T11:10:47.145Z, 43.70
2023-05-09T11:11:47.148Z, 43.67
2023-05-09T11:12:47.203Z, 43.69
2023-05-09T11:13:47.189Z, 43.66
2023-05-09T11:14:47.166Z, 43.58
2023-05-09T11:15:47.180Z, 43.55
2023-05-09T11:16:47.264Z, 43.56
2023-05-09T11:17:47.259Z, 43.46
2023-05-09T11:18:47.212Z, 43.56
2023-05-09T11:19:47.281Z, 43.50
2023-05-09T11:20:47.249Z, 43.51
2023-05-09T11:21:47.240Z, 43.49
2023-05-09T11:22:47.305Z, 43.56
2023-05-09T11:23:47.286Z, 43.53
2023-05-09T11:24:47.362Z, 43.57
2023-05-09T11:25:47.314Z, 43.58
2023-05-09T11:26:47.305Z, 43.59
2023-05-09T11:27:47.382Z, 43.57
2023-05-09T11:28:47.371Z, 43.50
2023-05-09T11:29:47.435Z, 43.48
2023-05-09T11:30:47.393Z, 43.39
2023-05-09T11:31:47.379Z, 43.33
2023-05-09T11:32:47.407Z, 43.34
2023-05-09T11:33:47.396Z, 43.34
2023-05-09T11:34:47.482Z, 43.28
2023-05-09T11:35:47.454Z, 43.25
2023-05-09T11:36:47.460Z, 43.27
2023-05-09T11:37:47.455Z, 43.23
2023-05-09T11:38:47.466Z, 43.25
2023-05-09T11:39:47.484Z, 43.28
2023-05-09T11:40:47.472Z, 43.20
2023-05-09T11:41:47.495Z, 43.23
2023-05-09T11:42:47.502Z, 43.22
2023-05-09T11:43:47.570Z, 43.16
2023-05-09T11:44:47.550Z, 43.13
2023-05-09T11:45:47.626Z, 43.12
2023-05-09T11:46:47.582Z, 43.06
2023-05-09T11:47:47.658Z, 43.12
2023-05-09T11:48:47.574Z, 43.08
2023-05-09T11:49:47.611Z, 43.05
2023-05-09T11:50:47.605Z, 43.06
2023-05-09T11:51:47.616Z, 43.05
2023-05-09T11:52:47.606Z, 43.05
2023-05-09T11:53:47.625Z, 43.08
2023-05-09T11:54:47.641Z, 43.07
2023-05-09T11:55:47.654Z, 43.00
2023-05-09T11:56:47.711Z, 43.05
2023-05-09T11:57:47.701Z, 42.99
2023-05-09T11:58:47.767Z, 42.93
2023-05-09T11:59:47.739Z, 42.94
2023-05-09T12:00:47.780Z, 42.95
2023-05-09T12:01:47.776Z, 42.97
2023-05-09T12:02:47.876Z, 42.96
2023-05-09T12:03:47.898Z, 42.97
2023-05-09T12:04:47.826Z, 42.97
2023-05-09T12:05:47.817Z, 42.97
2023-05-09T12:06:47.863Z, 42.93
2023-05-09T12:07:47.844Z, 42.89
2023-05-09T12:08:47.840Z, 42.83
2023-05-09T12:09:47.898Z, 42.83
2023-05-09T12:10:47.862Z, 42.84
2023-05-09T12:11:49.827Z, 42.82
2023-05-09T12:12:47.945Z, 42.77
2023-05-09T12:13:47.910Z, 42.76
2023-05-09T12:14:47.882Z, 42.77
2023-05-09T12:15:47.914Z, 42.71
2023-05-09T12:16:47.916Z, 42.71
2023-05-09T12:17:50.366Z, 42.68
2023-05-09T12:18:47.975Z, 42.58
2023-05-09T12:19:47.932Z, 42.64
2023-05-09T12:20:47.959Z, 42.63
2023-05-09T12:21:47.956Z, 42.62
2023-05-09T12:22:48.012Z, 42.62
2023-05-09T12:23:50.920Z, 42.61
2023-05-09T12:24:48.096Z, 42.54
2023-05-09T12:25:48.078Z, 42.54
2023-05-09T12:26:48.071Z, 42.56
2023-05-09T12:27:48.072Z, 42.54
2023-05-09T12:28:48.086Z, 42.53